Time;durP1;ratioP1;P1;durP2;ratioP2;P2;SDS_P1;SDS_P2;PMS_P1;PMS_P2;Temp;Humidity;BMP_temperature;BMP_pressure;BME280_temperature;BME280_humidity;BME280_pressure;Samples;Min_cycle;Max_cycle;Signal;HPM_P1;HPM_P2
2021/01/16 00:00:39;;;;;;;11.52;9.18;;;6.90;99.90;;;;;;4975669;28;20612;-82
2021/01/16 00:03:09;;;;;;;11.93;9.45;;;7.00;99.90;;;;;;4975772;28;20201;-82
2021/01/16 00:05:35;;;;;;;12.98;9.88;;;6.90;99.90;;;;;;4975547;28;20201;-82
2021/01/16 00:08:04;;;;;;;14.65;9.20;;;6.90;99.90;;;;;;4975605;28;20204;-83
2021/01/16 00:10:31;;;;;;;17.05;10.02;;;6.80;99.90;;;;;;4975549;28;20202;-82
2021/01/16 00:12:58;;;;;;;14.80;9.20;;;6.70;99.90;;;;;;4975009;28;20204;-82
2021/01/16 00:15:25;;;;;;;13.15;9.02;;;6.70;99.90;;;;;;4975332;28;20208;-82
2021/01/16 00:17:58;;;;;;;11.20;8.13;;;6.60;99.90;;;;;;4975354;28;20202;-82
2021/01/16 00:20:25;;;;;;;13.43;9.70;;;6.60;99.90;;;;;;4975390;28;20241;-83
2021/01/16 00:22:52;;;;;;;13.13;9.35;;;6.60;99.90;;;;;;4975201;28;20202;-83
2021/01/16 00:25:19;;;;;;;16.67;9.88;;;6.60;99.90;;;;;;4975308;28;20271;-82
2021/01/16 00:27:45;;;;;;;12.57;9.23;;;6.60;99.90;;;;;;4975064;28;20225;-82
2021/01/16 00:30:13;;;;;;;14.70;11.20;;;6.50;99.90;;;;;;4975143;28;20210;-82
2021/01/16 00:32:40;;;;;;;13.80;9.85;;;6.50;99.90;;;;;;4975029;28;20201;-82
2021/01/16 00:35:08;;;;;;;12.05;9.35;;;6.50;99.90;;;;;;4975290;28;20201;-82
2021/01/16 00:37:35;;;;;;;12.25;9.27;;;6.50;99.90;;;;;;4974944;28;20204;-82
2021/01/16 00:40:02;;;;;;;12.65;9.25;;;6.50;99.90;;;;;;4974876;28;20224;-82
2021/01/16 00:42:29;;;;;;;15.43;9.90;;;6.60;99.90;;;;;;4974854;28;20700;-82
2021/01/16 00:44:55;;;;;;;12.73;9.70;;;6.60;99.90;;;;;;4974544;28;20284;-85
2021/01/16 00:47:21;;;;;;;12.57;8.57;;;6.60;99.90;;;;;;4974926;28;20208;-82
2021/01/16 00:49:48;;;;;;;14.57;9.95;;;6.50;99.90;;;;;;4974831;28;20198;-82
2021/01/16 00:52:14;;;;;;;15.45;10.02;;;6.60;99.90;;;;;;4974924;28;20197;-82
2021/01/16 00:54:40;;;;;;;15.25;9.90;;;6.60;99.90;;;;;;4974584;28;20194;-83
2021/01/16 00:57:06;;;;;;;12.07;10.13;;;6.60;99.90;;;;;;4974646;28;20582;-82
2021/01/16 00:59:33;;;;;;;11.88;8.70;;;6.80;99.90;;;;;;4974879;28;20198;-82
2021/01/16 01:02:00;;;;;;;15.05;9.75;;;6.80;99.90;;;;;;4974523;28;20229;-82
2021/01/16 01:04:26;;;;;;;11.48;9.07;;;6.80;99.90;;;;;;4974402;28;20688;-82
2021/01/16 01:06:52;;;;;;;16.13;8.40;;;6.90;99.90;;;;;;4974507;28;20672;-82
2021/01/16 01:09:18;;;;;;;12.25;9.70;;;6.90;99.90;;;;;;4974571;28;20568;-82
2021/01/16 01:11:45;;;;;;;12.63;9.95;;;6.80;99.90;;;;;;4974742;28;20197;-82
2021/01/16 01:14:11;;;;;;;12.82;10.05;;;6.80;99.90;;;;;;4974687;28;20201;-82
2021/01/16 01:16:40;;;;;;;14.90;9.90;;;6.80;99.90;;;;;;4974337;28;20205;-83
2021/01/16 01:19:06;;;;;;;14.45;9.13;;;6.90;99.90;;;;;;4974549;28;20210;-83
2021/01/16 01:21:33;;;;;;;15.25;10.75;;;6.90;99.90;;;;;;4974534;28;20739;-82
2021/01/16 01:23:59;;;;;;;14.30;8.80;;;6.90;99.90;;;;;;4974350;28;20197;-82
2021/01/16 01:26:26;;;;;;;14.57;9.40;;;7.00;99.90;;;;;;4978167;28;20217;-83
2021/01/16 01:28:52;;;;;;;10.27;7.90;;;7.00;99.90;;;;;;4978348;28;20198;-83
2021/01/16 01:31:18;;;;;;;12.52;9.10;;;7.00;99.90;;;;;;4978373;28;20194;-84
2021/01/16 01:33:45;;;;;;;13.15;9.05;;;7.00;99.70;;;;;;4978210;28;20194;-83
2021/01/16 01:36:11;;;;;;;10.32;8.30;;;7.00;99.50;;;;;;4978420;28;20193;-82
2021/01/16 01:38:38;;;;;;;9.88;8.20;;;7.10;99.50;;;;;;4978400;28;20201;-82
2021/01/16 01:41:04;;;;;;;10.65;8.95;;;7.10;99.00;;;;;;4978324;28;20229;-83
2021/01/16 01:43:30;;;;;;;12.48;9.35;;;7.10;98.90;;;;;;4978071;28;20696;-83
2021/01/16 01:45:57;;;;;;;12.73;9.57;;;7.10;99.00;;;;;;4977936;28;20226;-83
2021/01/16 01:48:24;;;;;;;11.15;8.82;;;7.00;99.00;;;;;;4977980;28;20654;-83
2021/01/16 01:50:52;;;;;;;11.07;8.82;;;7.00;99.00;;;;;;4977894;28;20224;-83
2021/01/16 01:53:20;;;;;;;10.05;8.35;;;7.10;99.10;;;;;;4978040;28;20676;-82
2021/01/16 01:55:53;;;;;;;12.05;9.45;;;7.00;99.00;;;;;;4977964;28;20194;-82
2021/01/16 01:58:23;;;;;;;14.55;8.98;;;7.00;99.00;;;;;;4977872;28;20218;-82
2021/01/16 02:00:52;;;;;;;11.75;8.73;;;7.10;99.10;;;;;;4977669;28;20712;-82
2021/01/16 02:03:20;;;;;;;12.85;8.63;;;7.00;98.90;;;;;;4977769;28;20217;-82
2021/01/16 02:05:47;;;;;;;11.15;8.73;;;7.00;99.00;;;;;;4977717;28;20225;-83
2021/01/16 02:08:14;;;;;;;11.90;8.77;;;7.00;98.90;;;;;;4977870;28;20198;-82
2021/01/16 02:10:41;;;;;;;11.38;8.50;;;7.00;99.00;;;;;;4977608;28;20202;-82
2021/01/16 02:13:07;;;;;;;11.25;9.00;;;7.00;99.00;;;;;;4977569;28;20208;-83
2021/01/16 02:15:39;;;;;;;12.52;9.75;;;6.90;99.00;;;;;;4977788;28;20198;-82
2021/01/16 02:18:13;;;;;;;12.85;8.82;;;6.90;99.10;;;;;;4977520;28;20198;-82
2021/01/16 02:20:45;;;;;;;12.57;9.07;;;7.00;99.30;;;;;;4977330;28;20204;-82
2021/01/16 02:23:38;;;;;;;10.20;8.77;;;6.90;99.20;;;;;;4977338;28;20201;-83
2021/01/16 02:26:17;;;;;;;11.43;8.40;;;6.90;99.10;;;;;;4977418;28;20221;-82
2021/01/16 02:28:49;;;;;;;9.85;8.20;;;6.90;99.10;;;;;;4977403;28;20198;-82
2021/01/16 02:31:16;;;;;;;12.50;9.25;;;7.00;99.30;;;;;;4977484;28;20205;-83
2021/01/16 02:33:43;;;;;;;11.82;8.07;;;6.90;98.90;;;;;;4977132;28;20201;-82
2021/01/16 02:36:19;;;;;;;13.25;9.00;;;7.00;99.00;;;;;;4976822;28;20201;-83
2021/01/16 02:38:56;;;;;;;14.80;9.23;;;7.00;98.80;;;;;;4977184;28;20201;-82
2021/01/16 02:41:31;;;;;;;9.98;8.38;;;7.00;98.80;;;;;;4977475;28;20221;-83
2021/01/16 02:44:08;;;;;;;10.32;8.00;;;7.00;98.70;;;;;;4977039;28;20668;-83
2021/01/16 02:46:38;;;;;;;11.25;8.07;;;7.00;98.70;;;;;;4977053;28;20229;-82
2021/01/16 02:49:13;;;;;;;11.07;8.00;;;7.00;98.80;;;;;;4977091;28;20202;-82
2021/01/16 02:51:53;;;;;;;12.43;8.63;;;7.00;98.70;;;;;;4977126;28;20646;-82
2021/01/16 02:54:22;;;;;;;8.88;7.53;;;7.00;98.70;;;;;;4976994;28;20220;-82
2021/01/16 02:56:49;;;;;;;10.93;8.20;;;7.00;98.70;;;;;;4976824;28;20221;-82
2021/01/16 02:59:16;;;;;;;11.25;7.70;;;7.00;98.40;;;;;;4976882;28;20699;-82
2021/01/16 03:01:43;;;;;;;8.48;7.53;;;6.90;98.40;;;;;;4976600;28;20692;-82
2021/01/16 03:04:09;;;;;;;11.45;8.10;;;6.80;98.40;;;;;;4976818;28;20201;-83
2021/01/16 03:06:46;;;;;;;13.05;8.02;;;6.90;98.60;;;;;;4976872;28;20197;-83
2021/01/16 03:09:12;;;;;;;10.10;7.93;;;6.90;98.60;;;;;;4976677;28;20223;-83
2021/01/16 03:11:39;;;;;;;13.20;8.25;;;6.90;98.50;;;;;;4976555;28;20198;-82
2021/01/16 03:14:08;;;;;;;13.68;8.10;;;6.90;98.70;;;;;;4976766;28;20198;-82
2021/01/16 03:16:40;;;;;;;15.85;9.20;;;6.80;98.50;;;;;;4976716;28;20193;-83
2021/01/16 03:19:08;;;;;;;12.65;8.50;;;6.90;98.60;;;;;;4976746;28;20204;-82
2021/01/16 03:21:40;;;;;;;13.02;8.82;;;6.90;98.60;;;;;;4976400;28;20221;-83
2021/01/16 03:24:08;;;;;;;11.90;8.73;;;6.90;98.50;;;;;;4976420;28;20202;-84
2021/01/16 03:26:34;;;;;;;12.35;8.13;;;7.00;98.40;;;;;;4976246;28;20229;-82
2021/01/16 03:29:00;;;;;;;12.10;7.78;;;6.90;98.40;;;;;;4976285;28;20206;-82
2021/01/16 03:31:26;;;;;;;10.15;7.72;;;6.90;98.20;;;;;;4976199;28;20205;-84
2021/01/16 03:33:53;;;;;;;11.07;7.60;;;6.90;98.30;;;;;;4976284;28;20202;-84
2021/01/16 03:36:20;;;;;;;8.95;6.85;;;6.90;98.00;;;;;;4976120;28;20612;-82
2021/01/16 03:38:46;;;;;;;9.57;7.28;;;6.90;97.90;;;;;;4976034;28;20223;-84
2021/01/16 03:41:12;;;;;;;9.23;7.32;;;6.80;98.00;;;;;;4975867;28;20221;-82
2021/01/16 03:43:38;;;;;;;12.55;7.50;;;6.80;97.80;;;;;;4975757;28;20653;-85
2021/01/16 03:46:05;;;;;;;8.98;7.07;;;6.80;97.90;;;;;;4975908;28;20225;-82
2021/01/16 03:48:32;;;;;;;11.27;7.85;;;6.80;98.10;;;;;;4975062;28;20259;-82
2021/01/16 03:51:00;;;;;;;9.98;7.18;;;6.90;98.10;;;;;;4975772;28;20202;-82
2021/01/16 03:53:26;;;;;;;9.38;7.57;;;6.70;98.10;;;;;;4975738;28;20212;-82
2021/01/16 03:55:52;;;;;;;9.63;7.00;;;6.80;98.30;;;;;;4975833;28;20193;-83
2021/01/16 03:58:19;;;;;;;11.43;7.90;;;6.60;98.30;;;;;;4975680;28;20264;-82
2021/01/16 04:00:45;;;;;;;11.85;8.57;;;6.60;98.50;;;;;;4975676;28;20201;-82
2021/01/16 04:03:11;;;;;;;8.80;7.85;;;6.70;98.50;;;;;;4975533;28;20206;-82
2021/01/16 04:05:37;;;;;;;18.38;7.85;;;6.70;98.80;;;;;;4975657;28;20198;-82
2021/01/16 04:08:05;;;;;;;10.90;7.88;;;6.70;98.50;;;;;;4975828;28;20630;-82
2021/01/16 04:10:31;;;;;;;11.60;7.63;;;6.80;98.70;;;;;;4975451;28;20650;-83
2021/01/16 04:12:58;;;;;;;11.40;8.27;;;6.80;98.70;;;;;;4975619;28;20653;-83
2021/01/16 04:15:24;;;;;;;10.45;6.78;;;6.80;98.70;;;;;;4975359;28;20654;-84
2021/01/16 04:17:51;;;;;;;12.65;9.10;;;6.80;98.60;;;;;;4975658;28;20201;-83
2021/01/16 04:20:17;;;;;;;11.68;7.70;;;6.80;98.60;;;;;;4975549;28;20198;-82
2021/01/16 04:22:43;;;;;;;9.85;8.05;;;6.90;98.70;;;;;;4975103;28;20229;-82
2021/01/16 04:25:10;;;;;;;10.00;7.88;;;6.90;98.80;;;;;;4975528;28;20208;-83
2021/01/16 04:27:37;;;;;;;9.15;7.70;;;6.90;98.80;;;;;;4975355;28;20225;-82
2021/01/16 04:30:04;;;;;;;9.70;7.20;;;6.90;98.50;;;;;;4975165;28;20198;-85
2021/01/16 04:32:30;;;;;;;10.70;7.20;;;6.80;98.50;;;;;;4975126;28;20243;-83
2021/01/16 04:34:57;;;;;;;12.13;8.40;;;6.90;99.00;;;;;;4974988;28;20526;-82
2021/01/16 04:37:23;;;;;;;9.25;7.28;;;6.90;98.70;;;;;;4975183;28;20201;-83
2021/01/16 04:39:49;;;;;;;10.68;8.57;;;6.90;98.80;;;;;;4975059;28;20204;-82
2021/01/16 04:42:17;;;;;;;16.45;9.13;;;7.00;98.80;;;;;;4974704;28;20234;-83
2021/01/16 04:44:45;;;;;;;11.50;7.75;;;7.00;98.90;;;;;;4974714;28;20234;-83
2021/01/16 04:47:18;;;;;;;10.55;7.40;;;6.90;98.90;;;;;;4974853;28;20279;-82
2021/01/16 04:49:44;;;;;;;11.25;6.97;;;7.00;98.90;;;;;;4975191;28;20198;-83
2021/01/16 04:52:11;;;;;;;12.30;8.63;;;7.00;98.70;;;;;;4974905;28;20194;-82
2021/01/16 04:54:40;;;;;;;9.60;7.60;;;7.00;98.60;;;;;;4974991;28;20206;-82
2021/01/16 04:57:07;;;;;;;10.80;7.60;;;6.90;98.20;;;;;;4974664;28;20217;-83
2021/01/16 04:59:35;;;;;;;9.75;7.13;;;6.90;98.30;;;;;;4974683;28;20205;-82
2021/01/16 05:02:09;;;;;;;8.95;7.65;;;6.80;98.00;;;;;;4974678;28;20295;-82
2021/01/16 05:04:39;;;;;;;8.48;6.40;;;6.80;98.10;;;;;;4974625;28;20197;-82
2021/01/16 05:07:06;;;;;;;13.00;8.55;;;6.70;97.80;;;;;;4974671;28;20201;-82
2021/01/16 05:09:35;;;;;;;10.60;7.97;;;6.80;97.90;;;;;;4974585;28;20206;-83
2021/01/16 05:12:28;;;;;;;13.68;7.40;;;6.90;98.20;;;;;;4974705;28;20248;-82
2021/01/16 05:15:05;;;;;;;11.77;7.20;;;6.80;98.20;;;;;;4974691;28;20205;-82
2021/01/16 05:17:35;;;;;;;8.73;6.95;;;6.70;98.00;;;;;;4974551;28;20243;-82
2021/01/16 05:20:02;;;;;;;9.40;6.68;;;6.60;97.90;;;;;;4974564;28;20198;-82
2021/01/16 05:22:29;;;;;;;8.52;7.10;;;6.70;98.00;;;;;;4974231;28;20711;-83
2021/01/16 05:25:01;;;;;;;9.18;6.30;;;6.80;98.00;;;;;;4974590;28;20205;-84
2021/01/16 05:27:33;;;;;;;9.48;7.63;;;6.80;97.80;;;;;;4974489;28;20218;-83
2021/01/16 05:30:03;;;;;;;9.77;7.90;;;6.90;97.70;;;;;;4974559;28;20224;-83
2021/01/16 05:32:31;;;;;;;10.80;7.00;;;6.90;97.80;;;;;;4974539;28;20249;-82
2021/01/16 05:35:13;;;;;;;11.10;6.95;;;6.80;97.60;;;;;;4974423;28;20566;-84
2021/01/16 05:37:41;;;;;;;10.95;7.47;;;6.80;97.60;;;;;;4974542;28;20201;-84
2021/01/16 05:40:10;;;;;;;10.85;6.47;;;6.70;97.60;;;;;;4974266;28;20210;-82
2021/01/16 05:42:37;;;;;;;9.88;6.85;;;6.70;97.70;;;;;;4974007;28;20229;-83
2021/01/16 05:45:08;;;;;;;8.85;6.85;;;6.60;97.60;;;;;;4974033;28;20296;-82
2021/01/16 05:47:35;;;;;;;8.82;6.50;;;6.50;97.60;;;;;;4974529;28;20216;-83
2021/01/16 05:50:01;;;;;;;10.80;7.18;;;6.50;97.70;;;;;;4974199;28;20217;-82
2021/01/16 05:52:28;;;;;;;9.38;6.78;;;6.60;98.00;;;;;;4974437;28;20198;-82
2021/01/16 05:54:59;;;;;;;10.00;7.28;;;6.70;98.10;;;;;;4974140;28;20197;-83
2021/01/16 05:57:26;;;;;;;10.43;7.32;;;6.70;97.80;;;;;;4974147;28;20213;-82
2021/01/16 05:59:57;;;;;;;8.20;7.15;;;6.70;97.70;;;;;;4974012;28;20260;-82
2021/01/16 06:02:28;;;;;;;9.80;7.82;;;6.60;97.70;;;;;;4974121;28;20260;-82
2021/01/16 06:04:55;;;;;;;9.15;6.22;;;6.60;97.60;;;;;;4974004;28;20202;-82
2021/01/16 06:07:22;;;;;;;8.40;6.60;;;6.40;97.40;;;;;;4974187;28;20206;-82
2021/01/16 06:09:50;;;;;;;8.05;5.93;;;6.40;97.50;;;;;;4973879;28;20248;-82
2021/01/16 06:12:18;;;;;;;9.45;6.38;;;6.40;97.40;;;;;;4977226;28;20194;-82
2021/01/16 06:14:46;;;;;;;7.90;6.80;;;6.20;97.40;;;;;;4977657;28;20606;-82
2021/01/16 06:17:13;;;;;;;9.68;6.75;;;6.20;97.50;;;;;;4977782;28;20220;-82
2021/01/16 06:19:45;;;;;;;10.38;6.53;;;6.30;97.60;;;;;;4977620;28;20209;-82
2021/01/16 06:22:12;;;;;;;9.68;6.28;;;6.50;97.60;;;;;;4977377;28;20586;-82
2021/01/16 06:24:39;;;;;;;11.00;7.00;;;6.60;97.60;;;;;;4977427;28;20300;-83
2021/01/16 06:27:06;;;;;;;7.50;6.20;;;6.60;97.40;;;;;;4977261;28;20248;-82
2021/01/16 06:29:34;;;;;;;7.65;6.65;;;6.70;97.40;;;;;;4977534;28;20325;-83
2021/01/16 06:32:05;;;;;;;9.70;7.10;;;6.70;97.30;;;;;;4977469;28;20206;-82
2021/01/16 06:34:33;;;;;;;8.48;6.75;;;6.80;97.30;;;;;;4977520;28;20209;-83
2021/01/16 06:37:06;;;;;;;9.40;6.22;;;6.80;97.70;;;;;;4977381;28;20205;-83
2021/01/16 06:39:35;;;;;;;13.55;6.90;;;6.70;97.20;;;;;;4977144;28;20201;-82
2021/01/16 06:42:07;;;;;;;7.20;5.80;;;6.80;97.20;;;;;;4977022;28;20232;-82
2021/01/16 06:44:33;;;;;;;9.48;6.10;;;6.90;97.20;;;;;;4977016;28;20209;-83
2021/01/16 06:47:00;;;;;;;8.13;6.00;;;6.90;97.00;;;;;;4977132;28;20197;-82
2021/01/16 06:49:28;;;;;;;8.48;6.63;;;6.70;96.60;;;;;;4976883;28;20256;-82
2021/01/16 06:51:55;;;;;;;7.65;5.60;;;6.60;96.50;;;;;;4976973;28;20194;-82
2021/01/16 06:54:24;;;;;;;8.95;7.05;;;6.40;96.50;;;;;;4976711;28;20197;-82
2021/01/16 06:57:02;;;;;;;7.30;5.10;;;6.30;96.40;;;;;;4976704;28;20221;-82
2021/01/16 06:59:29;;;;;;;8.70;7.05;;;6.40;96.50;;;;;;4976755;28;20197;-82
2021/01/16 07:01:56;;;;;;;8.55;6.20;;;6.40;96.40;;;;;;4976490;28;20233;-83
2021/01/16 07:04:23;;;;;;;8.52;6.35;;;6.40;96.40;;;;;;4976730;28;20202;-82
2021/01/16 07:06:51;;;;;;;6.30;5.00;;;6.20;96.10;;;;;;4976612;28;20210;-83
2021/01/16 07:09:19;;;;;;;7.85;6.15;;;6.10;96.30;;;;;;4976665;28;20194;-82
2021/01/16 07:11:48;;;;;;;9.60;7.82;;;6.00;96.60;;;;;;4976755;28;20521;-82
2021/01/16 07:14:15;;;;;;;8.02;6.03;;;6.20;96.80;;;;;;4976611;28;20210;-82
2021/01/16 07:16:42;;;;;;;9.68;6.90;;;6.30;96.70;;;;;;4976580;28;20684;-83
2021/01/16 07:19:09;;;;;;;6.53;4.75;;;6.20;96.70;;;;;;4976772;28;20198;-83
2021/01/16 07:21:42;;;;;;;8.88;6.82;;;6.40;96.80;;;;;;4975809;28;20242;-82
2021/01/16 07:24:10;;;;;;;14.60;6.68;;;6.40;96.80;;;;;;4976017;28;20202;-83
2021/01/16 07:26:38;;;;;;;8.52;5.97;;;6.40;96.90;;;;;;4976421;28;20228;-83
2021/01/16 07:29:07;;;;;;;7.57;5.82;;;6.40;96.90;;;;;;4976313;28;20205;-82
2021/01/16 07:31:37;;;;;;;9.57;7.07;;;6.20;96.70;;;;;;4976146;28;20198;-82
2021/01/16 07:34:04;;;;;;;12.23;8.55;;;6.10;96.80;;;;;;4976424;28;20226;-82
2021/01/16 07:36:31;;;;;;;8.70;6.32;;;6.20;97.00;;;;;;4976231;28;20201;-82
2021/01/16 07:39:02;;;;;;;6.55;5.85;;;6.30;96.80;;;;;;4976015;28;20201;-82
2021/01/16 07:41:31;;;;;;;10.02;7.25;;;6.20;96.90;;;;;;4976104;28;20268;-83
2021/01/16 07:44:04;;;;;;;11.05;7.05;;;6.30;97.20;;;;;;4975812;28;20198;-82
2021/01/16 07:46:32;;;;;;;9.32;6.30;;;6.30;97.10;;;;;;4975617;28;20320;-82
2021/01/16 07:49:00;;;;;;;8.48;7.05;;;6.30;96.90;;;;;;4975919;28;20220;-82
2021/01/16 07:51:34;;;;;;;9.55;6.90;;;6.10;97.00;;;;;;4975794;28;20213;-82
2021/01/16 07:54:02;;;;;;;7.93;6.30;;;6.10;97.00;;;;;;4976290;28;20665;-82
2021/01/16 07:56:37;;;;;;;8.73;7.65;;;6.10;97.00;;;;;;4975788;28;20214;-82
2021/01/16 07:59:14;;;;;;;7.35;5.68;;;6.20;97.00;;;;;;4975791;28;20193;-83
2021/01/16 08:02:18;;;;;;;10.98;7.20;;;6.30;97.00;;;;;;4975589;28;20232;-83
2021/01/16 08:04:55;;;;;;;7.60;6.25;;;6.40;96.70;;;;;;4975673;28;20208;-83
2021/01/16 08:07:28;;;;;;;11.20;7.07;;;6.30;96.60;;;;;;4975722;28;20208;-83
2021/01/16 08:09:57;;;;;;;12.07;6.80;;;6.10;96.60;;;;;;4975693;28;21028;-82
2021/01/16 08:12:25;;;;;;;7.10;6.40;;;6.10;96.80;;;;;;4975394;28;20277;-83
2021/01/16 08:14:52;;;;;;;6.88;6.18;;;6.20;96.80;;;;;;4975475;28;20252;-83
2021/01/16 08:17:22;;;;;;;9.60;6.28;;;6.30;96.70;;;;;;4975408;28;20197;-82
2021/01/16 08:20:06;;;;;;;8.50;6.20;;;6.20;96.60;;;;;;4975699;28;20197;-82
2021/01/16 08:22:37;;;;;;;8.02;6.88;;;6.30;96.60;;;;;;4975278;28;20247;-83
2021/01/16 08:25:05;;;;;;;8.02;6.65;;;6.40;96.40;;;;;;4983432;28;20193;-80
2021/01/16 08:27:33;;;;;;;10.10;5.97;;;6.30;96.40;;;;;;4991678;28;20228;-81
2021/01/16 08:30:06;;;;;;;7.55;6.13;;;6.20;96.70;;;;;;4994573;28;20197;-81
2021/01/16 08:32:51;;;;;;;8.43;5.95;;;6.40;96.70;;;;;;4994870;28;20208;-81
2021/01/16 08:35:22;;;;;;;8.38;6.78;;;6.40;96.40;;;;;;4994210;28;20208;-82
2021/01/16 08:37:49;;;;;;;8.45;5.50;;;6.20;96.20;;;;;;4992599;28;20201;-81
2021/01/16 08:40:31;;;;;;;9.05;6.25;;;6.10;96.30;;;;;;4990989;28;20199;-82
2021/01/16 08:42:58;;;;;;;9.82;6.97;;;6.20;96.50;;;;;;4979663;28;20228;-81
2021/01/16 08:45:24;;;;;;;8.48;6.63;;;6.30;96.40;;;;;;4974743;28;20244;-81
2021/01/16 08:47:52;;;;;;;11.25;7.03;;;6.30;96.20;;;;;;4974852;28;20201;-81
2021/01/16 08:50:19;;;;;;;8.57;5.82;;;6.40;96.40;;;;;;4974795;28;20654;-82
2021/01/16 08:52:45;;;;;;;10.07;7.05;;;6.40;96.20;;;;;;4974686;28;20194;-81
2021/01/16 08:55:12;;;;;;;6.80;5.88;;;6.50;96.30;;;;;;4982066;28;20189;-81
2021/01/16 08:57:39;;;;;;;12.40;7.13;;;6.50;96.20;;;;;;4994085;28;20275;-81
2021/01/16 09:00:29;;;;;;;9.32;7.20;;;6.40;96.00;;;;;;4994071;28;20201;-81
2021/01/16 09:03:07;;;;;;;10.13;7.57;;;6.40;96.10;;;;;;4988461;28;20229;-81
2021/01/16 09:05:34;;;;;;;8.77;6.70;;;6.40;96.20;;;;;;4988019;28;20197;-82
2021/01/16 09:08:00;;;;;;;8.00;6.32;;;6.40;96.10;;;;;;4984768;28;20196;-80
2021/01/16 09:10:27;;;;;;;9.07;6.78;;;6.30;96.10;;;;;;4992237;28;20197;-81
2021/01/16 09:12:54;;;;;;;8.23;6.50;;;6.20;96.10;;;;;;4991092;28;20661;-85
2021/01/16 09:15:23;;;;;;;9.32;6.97;;;6.30;96.40;;;;;;4994137;28;20207;-84
2021/01/16 09:18:06;;;;;;;9.20;6.78;;;6.40;96.30;;;;;;4994003;28;20208;-81
2021/01/16 09:20:34;;;;;;;14.57;6.32;;;6.40;96.30;;;;;;4991792;28;20203;-81
2021/01/16 09:23:22;;;;;;;10.40;7.45;;;6.50;96.40;;;;;;4993574;28;20228;-82
2021/01/16 09:25:49;;;;;;;12.40;7.85;;;6.50;96.50;;;;;;4994264;28;20227;-81
2021/01/16 09:28:15;;;;;;;10.52;7.70;;;6.20;96.40;;;;;;4993965;28;20209;-81
2021/01/16 09:30:42;;;;;;;10.93;6.97;;;6.40;96.60;;;;;;4993799;28;20304;-81
2021/01/16 09:33:21;;;;;;;12.32;7.90;;;6.30;96.50;;;;;;4993718;28;20197;-80
2021/01/16 09:35:47;;;;;;;10.05;8.02;;;6.30;96.40;;;;;;4993653;28;20200;-82
2021/01/16 09:38:19;;;;;;;14.75;7.70;;;6.20;96.40;;;;;;4991515;28;20193;-81
2021/01/16 09:40:46;;;;;;;11.75;8.10;;;6.30;96.40;;;;;;4984561;28;20193;-81
2021/01/16 09:43:14;;;;;;;9.27;7.25;;;6.40;96.50;;;;;;4981969;28;20572;-81
2021/01/16 09:45:54;;;;;;;13.57;10.98;;;6.50;96.40;;;;;;4974907;28;20221;-82
2021/01/16 09:48:41;;;;;;;18.65;7.72;;;6.60;96.60;;;;;;4978060;28;20204;-81
2021/01/16 09:51:09;;;;;;;12.65;8.77;;;6.70;96.70;;;;;;4978048;28;20288;-82
2021/01/16 09:53:36;;;;;;;16.35;8.32;;;6.90;96.60;;;;;;4977798;28;20194;-83
2021/01/16 09:56:03;;;;;;;8.23;5.90;;;7.00;96.50;;;;;;4977683;28;20225;-81
2021/01/16 09:58:31;;;;;;;10.25;7.43;;;7.10;96.30;;;;;;4977730;28;20201;-82
2021/01/16 10:01:14;;;;;;;9.75;7.47;;;7.00;96.20;;;;;;4977898;28;20206;-83
2021/01/16 10:03:42;;;;;;;9.55;7.00;;;7.10;96.30;;;;;;4977697;28;20197;-81
2021/01/16 10:06:09;;;;;;;11.27;8.43;;;7.10;96.10;;;;;;4996074;28;20197;-82
2021/01/16 10:08:39;;;;;;;10.95;7.50;;;7.10;96.20;;;;;;4997124;28;20200;-85
2021/01/16 10:11:06;;;;;;;8.82;6.93;;;6.90;95.80;;;;;;4996886;28;20205;-85
2021/01/16 10:13:34;;;;;;;9.98;7.15;;;7.00;95.80;;;;;;4997478;28;20196;-85
2021/01/16 10:16:02;;;;;;;10.30;6.90;;;7.10;95.80;;;;;;4997055;28;20231;-85
2021/01/16 10:18:30;;;;;;;12.18;7.63;;;7.10;95.50;;;;;;4997234;28;20549;-85
2021/01/16 10:21:05;;;;;;;9.40;6.85;;;7.10;95.50;;;;;;4997179;28;20197;-84
2021/01/16 10:23:33;;;;;;;10.65;7.63;;;7.00;95.60;;;;;;4996944;28;20235;-85
2021/01/16 10:26:01;;;;;;;9.70;7.28;;;7.00;95.60;;;;;;4996907;28;20227;-85
2021/01/16 10:28:28;;;;;;;8.40;6.57;;;7.10;95.60;;;;;;4997208;28;20581;-85
2021/01/16 10:30:59;;;;;;;13.38;7.13;;;7.00;95.30;;;;;;4996992;28;20212;-85
2021/01/16 10:33:28;;;;;;;10.48;7.65;;;7.10;95.20;;;;;;4997086;28;20563;-85
2021/01/16 10:36:06;;;;;;;9.57;7.22;;;7.20;95.40;;;;;;4996924;28;20557;-85
2021/01/16 10:38:50;;;;;;;13.70;8.07;;;7.20;95.40;;;;;;4996979;28;20197;-85
2021/01/16 10:41:19;;;;;;;12.88;8.43;;;7.10;95.00;;;;;;4996633;28;20204;-85
2021/01/16 10:43:46;;;;;;;13.98;8.30;;;7.00;95.40;;;;;;4996836;28;20252;-85
2021/01/16 10:46:21;;;;;;;10.43;7.22;;;6.80;95.50;;;;;;4995505;28;20240;-85
2021/01/16 10:48:48;;;;;;;8.05;7.25;;;6.80;95.70;;;;;;4996028;28;20197;-84
2021/01/16 10:51:22;;;;;;;10.95;8.20;;;7.00;95.80;;;;;;4995622;28;20204;-84
2021/01/16 10:53:56;;;;;;;15.63;9.27;;;7.10;95.70;;;;;;4995340;28;20192;-84
2021/01/16 10:56:25;;;;;;;9.93;7.22;;;7.10;95.60;;;;;;4995367;28;20225;-84
2021/01/16 10:59:06;;;;;;;16.58;8.13;;;7.20;95.70;;;;;;4995327;28;20223;-85
2021/01/16 11:01:44;;;;;;;8.68;7.25;;;7.30;95.70;;;;;;4995381;28;20205;-84
2021/01/16 11:04:18;;;;;;;10.90;8.20;;;7.30;95.50;;;;;;4995276;28;20560;-85
2021/01/16 11:06:50;;;;;;;9.95;7.78;;;7.20;95.50;;;;;;4995275;28;20201;-85
2021/01/16 11:09:46;;;;;;;13.52;9.80;;;7.30;95.70;;;;;;4995106;28;20201;-85
2021/01/16 11:12:23;;;;;;;11.27;8.30;;;7.30;95.70;;;;;;4993762;28;20201;-85
2021/01/16 11:14:50;;;;;;;12.98;8.90;;;7.40;95.70;;;;;;4995104;28;20199;-85
2021/01/16 11:17:16;;;;;;;14.05;7.82;;;7.40;96.00;;;;;;4995097;28;20192;-85
2021/01/16 11:19:46;;;;;;;10.98;8.23;;;7.40;95.50;;;;;;4995200;28;20242;-84
2021/01/16 11:22:14;;;;;;;10.43;8.45;;;7.40;95.30;;;;;;4995037;28;20227;-85
2021/01/16 11:25:07;;;;;;;10.95;9.15;;;7.40;95.50;;;;;;4995175;28;20201;-85
2021/01/16 11:27:35;;;;;;;12.82;9.02;;;7.50;95.50;;;;;;4994989;28;20212;-84
2021/01/16 11:30:06;;;;;;;12.77;6.88;;;7.40;95.40;;;;;;4994935;28;20688;-85
2021/01/16 11:32:35;;;;;;;13.90;8.00;;;7.40;95.50;;;;;;4995080;28;20189;-85
2021/01/16 11:35:08;;;;;;;10.38;8.43;;;7.20;95.30;;;;;;4994999;28;20196;-85
2021/01/16 11:37:55;;;;;;;15.27;8.82;;;7.30;95.40;;;;;;4994825;28;20207;-85
2021/01/16 11:40:26;;;;;;;14.80;9.07;;;7.30;95.40;;;;;;4994647;28;20200;-86
2021/01/16 11:42:55;;;;;;;12.35;9.10;;;7.40;95.50;;;;;;4994739;28;20220;-84
2021/01/16 11:45:24;;;;;;;15.97;7.87;;;7.40;95.50;;;;;;4975341;28;571237;-84
2021/01/16 11:47:51;;;;;;;10.93;8.43;;;7.40;95.50;;;;;;4995327;28;20436;-84
2021/01/16 11:50:19;;;;;;;13.10;9.07;;;7.30;95.40;;;;;;4994929;28;20715;-84
2021/01/16 11:52:45;;;;;;;11.40;8.23;;;7.20;95.20;;;;;;4995382;28;20201;-84
2021/01/16 11:55:13;;;;;;;13.00;9.02;;;7.00;95.30;;;;;;4995343;28;20586;-84
2021/01/16 11:57:42;;;;;;;12.43;8.40;;;6.90;95.50;;;;;;4995512;28;20200;-84
2021/01/16 12:00:09;;;;;;;11.18;8.75;;;6.80;95.60;;;;;;4995304;28;20557;-84
2021/01/16 12:02:36;;;;;;;11.40;9.35;;;7.00;96.10;;;;;;4994806;28;20239;-84
2021/01/16 12:05:03;;;;;;;11.38;8.35;;;6.90;95.80;;;;;;4995291;28;20255;-84
2021/01/16 12:07:31;;;;;;;12.27;8.57;;;6.90;95.90;;;;;;4995393;28;20710;-84
2021/01/16 12:09:58;;;;;;;12.55;8.50;;;6.90;95.80;;;;;;4994587;28;20255;-84
2021/01/16 12:12:31;;;;;;;11.15;8.40;;;6.70;95.70;;;;;;4994950;28;20197;-84
2021/01/16 12:15:00;;;;;;;11.07;7.47;;;6.70;96.00;;;;;;4994955;28;20197;-84
2021/01/16 12:17:28;;;;;;;10.25;8.15;;;6.70;95.90;;;;;;4994757;28;20201;-84
2021/01/16 12:19:55;;;;;;;12.20;8.27;;;6.80;96.30;;;;;;4995022;28;20636;-84
2021/01/16 12:22:22;;;;;;;9.15;7.32;;;6.80;95.80;;;;;;4994616;28;20228;-84
2021/01/16 12:24:49;;;;;;;12.57;9.15;;;6.90;95.90;;;;;;4994834;28;20645;-84
2021/01/16 12:27:21;;;;;;;10.43;7.93;;;7.00;95.90;;;;;;4994847;28;20220;-84
2021/01/16 12:29:53;;;;;;;9.45;7.30;;;6.90;95.50;;;;;;4994671;28;20203;-84
2021/01/16 12:32:19;;;;;;;10.48;7.97;;;6.80;95.40;;;;;;4994742;28;20203;-84
2021/01/16 12:34:50;;;;;;;10.25;8.55;;;6.80;95.50;;;;;;4994633;28;20657;-82
2021/01/16 12:37:32;;;;;;;9.02;7.88;;;6.80;95.60;;;;;;4993403;28;20193;-86
2021/01/16 12:39:59;;;;;;;11.50;7.97;;;6.90;95.60;;;;;;4993790;28;20201;-85
2021/01/16 12:42:26;;;;;;;11.73;8.95;;;7.00;95.50;;;;;;4983006;28;20221;-80
2021/01/16 12:45:02;;;;;;;12.48;8.88;;;7.10;95.40;;;;;;4986375;28;20280;-82
2021/01/16 12:47:29;;;;;;;10.10;7.65;;;7.00;95.30;;;;;;4994048;28;20623;-83
2021/01/16 12:49:56;;;;;;;11.73;8.02;;;6.90;95.50;;;;;;4994049;28;20197;-83
2021/01/16 12:52:27;;;;;;;10.45;8.02;;;6.90;95.40;;;;;;4993942;28;20216;-80
2021/01/16 12:55:01;;;;;;;12.00;8.13;;;7.00;95.60;;;;;;4992490;28;20558;-81
2021/01/16 12:57:32;;;;;;;10.48;8.25;;;7.00;95.50;;;;;;4974256;28;20208;-81
2021/01/16 13:00:00;;;;;;;10.93;7.70;;;7.00;95.60;;;;;;4974432;28;20671;-80
2021/01/16 13:02:28;;;;;;;8.98;7.68;;;7.10;95.60;;;;;;4976158;28;20229;-79